sensor_id;sensor_type;location;lat;lon;timestamp;temperature;humidity
5218;DHT22;26539;51.064;6.346;2023-06-10T00:02:00;21.70;99.90
5218;DHT22;26539;51.064;6.346;2023-06-10T00:08:23;21.60;99.90
5218;DHT22;26539;51.064;6.346;2023-06-10T00:11:19;21.60;99.90
5218;DHT22;26539;51.064;6.346;2023-06-10T00:20:13;21.50;99.90
5218;DHT22;26539;51.064;6.346;2023-06-10T00:23:11;21.50;99.90
5218;DHT22;26539;51.064;6.346;2023-06-10T00:26:30;21.40;99.90
5218;DHT22;26539;51.064;6.346;2023-06-10T00:33:11;21.40;99.90
5218;DHT22;26539;51.064;6.346;2023-06-10T00:49:43;21.20;99.90
5218;DHT22;26539;51.064;6.346;2023-06-10T00:55:58;21.10;99.90
5218;DHT22;26539;51.064;6.346;2023-06-10T00:59:00;21.10;99.90
5218;DHT22;26539;51.064;6.346;2023-06-10T01:19:58;20.70;99.90
5218;DHT22;26539;51.064;6.346;2023-06-10T01:26:13;20.60;99.90
5218;DHT22;26539;51.064;6.346;2023-06-10T01:35:41;20.50;99.90
5218;DHT22;26539;51.064;6.346;2023-06-10T01:45:54;20.10;99.90
5218;DHT22;26539;51.064;6.346;2023-06-10T01:49:02;20.10;99.90
5218;DHT22;26539;51.064;6.346;2023-06-10T02:09:52;19.90;99.90
5218;DHT22;26539;51.064;6.346;2023-06-10T02:20:39;19.80;99.90
5218;DHT22;26539;51.064;6.346;2023-06-10T02:34:55;19.60;99.90
5218;DHT22;26539;51.064;6.346;2023-06-10T02:41:35;19.50;99.90
5218;DHT22;26539;51.064;6.346;2023-06-10T02:51:39;19.40;99.90
5218;DHT22;26539;51.064;6.346;2023-06-10T03:05:33;19.30;99.90
5218;DHT22;26539;51.064;6.346;2023-06-10T03:33:44;19.00;1.00
5218;DHT22;26539;51.064;6.346;2023-06-10T03:54:41;19.10;1.00
5218;DHT22;26539;51.064;6.346;2023-06-10T04:01:58;19.20;1.00
5218;DHT22;26539;51.064;6.346;2023-06-10T04:39:46;19.90;99.90
5218;DHT22;26539;51.064;6.346;2023-06-10T04:57:21;20.50;99.90
5218;DHT22;26539;51.064;6.346;2023-06-10T05:08:11;20.80;99.90
5218;DHT22;26539;51.064;6.346;2023-06-10T05:40:31;22.10;99.90
5218;DHT22;26539;51.064;6.346;2023-06-10T07:13:41;52.40;1.00
5218;DHT22;26539;51.064;6.346;2023-06-10T07:44:07;50.90;1.00
5218;DHT22;26539;51.064;6.346;2023-06-10T07:58:07;51.90;1.00
5218;DHT22;26539;51.064;6.346;2023-06-10T08:04:54;52.60;1.00
5218;DHT22;26539;51.064;6.346;2023-06-10T08:08:28;52.60;1.00
5218;DHT22;26539;51.064;6.346;2023-06-10T08:18:49;50.70;1.00
5218;DHT22;26539;51.064;6.346;2023-06-10T08:24:37;50.20;1.00
5218;DHT22;26539;51.064;6.346;2023-06-10T08:27:40;50.30;1.00
5218;DHT22;26539;51.064;6.346;2023-06-10T08:30:46;50.80;1.00
5218;DHT22;26539;51.064;6.346;2023-06-10T08:33:17;50.50;1.00
5218;DHT22;26539;51.064;6.346;2023-06-10T08:39:34;51.20;1.00
5218;DHT22;26539;51.064;6.346;2023-06-10T08:44:54;52.20;1.00
5218;DHT22;26539;51.064;6.346;2023-06-10T08:47:22;52.20;1.00
5218;DHT22;26539;51.064;6.346;2023-06-10T08:49:48;51.70;1.00
5218;DHT22;26539;51.064;6.346;2023-06-10T08:52:16;51.60;1.00
5218;DHT22;26539;51.064;6.346;2023-06-10T08:54:44;51.80;1.00
5218;DHT22;26539;51.064;6.346;2023-06-10T08:57:12;52.00;1.00
5218;DHT22;26539;51.064;6.346;2023-06-10T08:59:38;52.00;1.00
5218;DHT22;26539;51.064;6.346;2023-06-10T09:02:04;52.00;1.00
5218;DHT22;26539;51.064;6.346;2023-06-10T09:04:30;51.60;1.00
5218;DHT22;26539;51.064;6.346;2023-06-10T09:06:57;51.70;1.00
5218;DHT22;26539;51.064;6.346;2023-06-10T09:09:23;51.50;1.00
5218;DHT22;26539;51.064;6.346;2023-06-10T09:11:48;50.90;1.00
5218;DHT22;26539;51.064;6.346;2023-06-10T09:14:14;50.50;1.00
5218;DHT22;26539;51.064;6.346;2023-06-10T09:16:42;50.00;1.00
5218;DHT22;26539;51.064;6.346;2023-06-10T09:19:07;49.50;1.00
5218;DHT22;26539;51.064;6.346;2023-06-10T09:21:34;49.70;1.00
5218;DHT22;26539;51.064;6.346;2023-06-10T09:24:01;50.30;1.00
5218;DHT22;26539;51.064;6.346;2023-06-10T09:26:29;50.80;1.00
5218;DHT22;26539;51.064;6.346;2023-06-10T09:29:13;51.30;1.00
5218;DHT22;26539;51.064;6.346;2023-06-10T09:31:39;51.70;1.00
5218;DHT22;26539;51.064;6.346;2023-06-10T09:34:15;51.70;1.00
5218;DHT22;26539;51.064;6.346;2023-06-10T09:36:42;52.00;1.00
5218;DHT22;26539;51.064;6.346;2023-06-10T09:39:18;51.90;1.00
5218;DHT22;26539;51.064;6.346;2023-06-10T09:41:45;51.70;1.00
5218;DHT22;26539;51.064;6.346;2023-06-10T09:44:21;51.70;1.00
5218;DHT22;26539;51.064;6.346;2023-06-10T09:46:49;51.90;1.00
5218;DHT22;26539;51.064;6.346;2023-06-10T09:49:19;51.80;1.00
5218;DHT22;26539;51.064;6.346;2023-06-10T09:51:54;51.50;1.00
5218;DHT22;26539;51.064;6.346;2023-06-10T09:54:21;51.20;1.00
5218;DHT22;26539;51.064;6.346;2023-06-10T09:56:48;51.30;1.00
5218;DHT22;26539;51.064;6.346;2023-06-10T09:59:14;51.40;1.00
5218;DHT22;26539;51.064;6.346;2023-06-10T10:01:39;51.40;1.00
5218;DHT22;26539;51.064;6.346;2023-06-10T10:04:05;51.30;1.00
5218;DHT22;26539;51.064;6.346;2023-06-10T10:06:31;51.10;1.00
5218;DHT22;26539;51.064;6.346;2023-06-10T10:08:57;50.80;1.00
5218;DHT22;26539;51.064;6.346;2023-06-10T10:11:23;50.10;1.00
5218;DHT22;26539;51.064;6.346;2023-06-10T10:13:52;49.50;1.00
5218;DHT22;26539;51.064;6.346;2023-06-10T10:16:29;49.00;1.00
5218;DHT22;26539;51.064;6.346;2023-06-10T10:18:57;48.70;1.00
5218;DHT22;26539;51.064;6.346;2023-06-10T10:21:26;48.70;1.00
5218;DHT22;26539;51.064;6.346;2023-06-10T10:26:31;48.30;1.00
5218;DHT22;26539;51.064;6.346;2023-06-10T10:29:10;48.30;1.00
5218;DHT22;26539;51.064;6.346;2023-06-10T10:31:36;48.40;1.00
5218;DHT22;26539;51.064;6.346;2023-06-10T10:34:07;48.10;1.00
5218;DHT22;26539;51.064;6.346;2023-06-10T10:36:35;47.90;1.00
5218;DHT22;26539;51.064;6.346;2023-06-10T10:39:07;47.90;1.00
5218;DHT22;26539;51.064;6.346;2023-06-10T10:41:42;47.70;1.00
5218;DHT22;26539;51.064;6.346;2023-06-10T10:44:08;47.50;1.00
5218;DHT22;26539;51.064;6.346;2023-06-10T10:46:45;47.60;1.00
5218;DHT22;26539;51.064;6.346;2023-06-10T10:49:15;47.30;1.00
5218;DHT22;26539;51.064;6.346;2023-06-10T10:51:57;47.30;1.00
5218;DHT22;26539;51.064;6.346;2023-06-10T10:54:36;47.60;1.00
5218;DHT22;26539;51.064;6.346;2023-06-10T11:05:00;47.90;1.00
5218;DHT22;26539;51.064;6.346;2023-06-10T11:07:26;48.00;1.00
5218;DHT22;26539;51.064;6.346;2023-06-10T11:10:03;48.10;1.00
5218;DHT22;26539;51.064;6.346;2023-06-10T11:15:28;48.20;1.00
5218;DHT22;26539;51.064;6.346;2023-06-10T11:18:14;48.20;1.00
5218;DHT22;26539;51.064;6.346;2023-06-10T11:28:41;47.10;1.00
5218;DHT22;26539;51.064;6.346;2023-06-10T11:31:08;46.40;1.00
5218;DHT22;26539;51.064;6.346;2023-06-10T11:33:38;46.40;1.00
5218;DHT22;26539;51.064;6.346;2023-06-10T11:36:07;46.20;1.00
5218;DHT22;26539;51.064;6.346;2023-06-10T11:38:33;46.10;1.00
5218;DHT22;26539;51.064;6.346;2023-06-10T11:40:59;45.90;1.00
5218;DHT22;26539;51.064;6.346;2023-06-10T11:43:25;45.60;1.00
5218;DHT22;26539;51.064;6.346;2023-06-10T11:45:54;45.40;1.00
5218;DHT22;26539;51.064;6.346;2023-06-10T11:48:20;45.70;1.00
5218;DHT22;26539;51.064;6.346;2023-06-10T11:50:46;45.60;1.00
5218;DHT22;26539;51.064;6.346;2023-06-10T11:53:11;44.80;1.00
5218;DHT22;26539;51.064;6.346;2023-06-10T11:55:48;44.50;1.00
5218;DHT22;26539;51.064;6.346;2023-06-10T11:58:19;44.30;1.00
5218;DHT22;26539;51.064;6.346;2023-06-10T12:00:46;44.20;1.00
5218;DHT22;26539;51.064;6.346;2023-06-10T12:03:12;44.40;1.00
5218;DHT22;26539;51.064;6.346;2023-06-10T12:05:38;43.90;1.00
5218;DHT22;26539;51.064;6.346;2023-06-10T12:08:11;43.10;1.00
5218;DHT22;26539;51.064;6.346;2023-06-10T12:10:43;42.00;1.00
5218;DHT22;26539;51.064;6.346;2023-06-10T12:13:09;40.80;1.00
5218;DHT22;26539;51.064;6.346;2023-06-10T12:15:35;39.80;1.00
5218;DHT22;26539;51.064;6.346;2023-06-10T12:18:01;39.10;1.00
5218;DHT22;26539;51.064;6.346;2023-06-10T12:20:29;38.50;1.00
5218;DHT22;26539;51.064;6.346;2023-06-10T12:22:55;38.10;1.00
5218;DHT22;26539;51.064;6.346;2023-06-10T12:25:28;37.90;1.00
5218;DHT22;26539;51.064;6.346;2023-06-10T12:27:55;37.80;1.00
5218;DHT22;26539;51.064;6.346;2023-06-10T12:30:23;37.80;1.00
5218;DHT22;26539;51.064;6.346;2023-06-10T12:32:50;37.60;1.00
5218;DHT22;26539;51.064;6.346;2023-06-10T12:35:21;37.60;1.00
5218;DHT22;26539;51.064;6.346;2023-06-10T12:37:56;37.50;1.00
5218;DHT22;26539;51.064;6.346;2023-06-10T12:40:33;37.50;1.00
5218;DHT22;26539;51.064;6.346;2023-06-10T12:42:59;37.60;1.00
5218;DHT22;26539;51.064;6.346;2023-06-10T12:45:33;37.60;1.00
5218;DHT22;26539;51.064;6.346;2023-06-10T12:48:08;38.00;1.00
5218;DHT22;26539;51.064;6.346;2023-06-10T12:50:39;38.00;1.00
5218;DHT22;26539;51.064;6.346;2023-06-10T12:53:04;37.90;1.00
5218;DHT22;26539;51.064;6.346;2023-06-10T12:55:31;38.50;1.00
5218;DHT22;26539;51.064;6.346;2023-06-10T12:57:56;39.10;1.00
5218;DHT22;26539;51.064;6.346;2023-06-10T13:00:22;39.80;1.00
5218;DHT22;26539;51.064;6.346;2023-06-10T13:02:52;40.20;1.00
5218;DHT22;26539;51.064;6.346;2023-06-10T13:05:19;40.50;1.00
5218;DHT22;26539;51.064;6.346;2023-06-10T13:07:45;40.60;1.00
5218;DHT22;26539;51.064;6.346;2023-06-10T13:10:15;40.70;1.00
5218;DHT22;26539;51.064;6.346;2023-06-10T13:12:44;40.80;1.00
5218;DHT22;26539;51.064;6.346;2023-06-10T13:15:10;41.00;1.00
5218;DHT22;26539;51.064;6.346;2023-06-10T13:17:37;41.20;1.00
5218;DHT22;26539;51.064;6.346;2023-06-10T13:20:07;41.40;1.00
5218;DHT22;26539;51.064;6.346;2023-06-10T13:22:33;41.40;1.00
5218;DHT22;26539;51.064;6.346;2023-06-10T13:25:04;41.20;1.00
5218;DHT22;26539;51.064;6.346;2023-06-10T13:27:30;40.70;1.00
5218;DHT22;26539;51.064;6.346;2023-06-10T13:29:56;40.00;1.00
5218;DHT22;26539;51.064;6.346;2023-06-10T13:32:21;40.00;1.00
5218;DHT22;26539;51.064;6.346;2023-06-10T13:34:47;39.90;1.00
5218;DHT22;26539;51.064;6.346;2023-06-10T13:37:15;39.60;1.00
5218;DHT22;26539;51.064;6.346;2023-06-10T13:39:42;39.20;1.00
5218;DHT22;26539;51.064;6.346;2023-06-10T13:42:08;38.60;1.00
5218;DHT22;26539;51.064;6.346;2023-06-10T13:44:34;38.10;1.00
5218;DHT22;26539;51.064;6.346;2023-06-10T13:47:02;37.50;1.00
5218;DHT22;26539;51.064;6.346;2023-06-10T13:49:28;37.40;1.00
5218;DHT22;26539;51.064;6.346;2023-06-10T13:51:53;37.20;1.00
5218;DHT22;26539;51.064;6.346;2023-06-10T13:54:19;36.70;1.00
5218;DHT22;26539;51.064;6.346;2023-06-10T13:56:44;36.40;1.00
5218;DHT22;26539;51.064;6.346;2023-06-10T13:59:10;36.30;1.00
5218;DHT22;26539;51.064;6.346;2023-06-10T14:01:35;36.20;1.00
5218;DHT22;26539;51.064;6.346;2023-06-10T14:04:01;36.10;1.00
5218;DHT22;26539;51.064;6.346;2023-06-10T14:06:27;36.10;1.00
5218;DHT22;26539;51.064;6.346;2023-06-10T14:08:53;36.20;1.00
5218;DHT22;26539;51.064;6.346;2023-06-10T14:11:20;36.20;1.00
5218;DHT22;26539;51.064;6.346;2023-06-10T14:13:46;36.20;1.00
5218;DHT22;26539;51.064;6.346;2023-06-10T14:16:12;36.10;1.00
5218;DHT22;26539;51.064;6.346;2023-06-10T14:18:37;36.00;1.00
5218;DHT22;26539;51.064;6.346;2023-06-10T14:21:03;35.80;1.00
5218;DHT22;26539;51.064;6.346;2023-06-10T14:23:28;35.70;1.00
5218;DHT22;26539;51.064;6.346;2023-06-10T14:25:54;35.70;1.00
5218;DHT22;26539;51.064;6.346;2023-06-10T14:28:20;35.50;1.00
5218;DHT22;26539;51.064;6.346;2023-06-10T14:30:45;35.60;1.00
5218;DHT22;26539;51.064;6.346;2023-06-10T14:33:11;35.70;1.00
5218;DHT22;26539;51.064;6.346;2023-06-10T14:35:36;35.70;1.00
5218;DHT22;26539;51.064;6.346;2023-06-10T14:38:02;35.90;1.00
5218;DHT22;26539;51.064;6.346;2023-06-10T14:40:27;36.00;1.00
5218;DHT22;26539;51.064;6.346;2023-06-10T14:42:55;36.00;1.00
5218;DHT22;26539;51.064;6.346;2023-06-10T14:45:21;35.80;1.00
5218;DHT22;26539;51.064;6.346;2023-06-10T14:47:46;35.70;1.00
5218;DHT22;26539;51.064;6.346;2023-06-10T14:50:12;35.70;1.00
5218;DHT22;26539;51.064;6.346;2023-06-10T14:52:38;35.60;1.00
5218;DHT22;26539;51.064;6.346;2023-06-10T14:55:04;35.70;1.00
5218;DHT22;26539;51.064;6.346;2023-06-10T14:57:30;35.80;1.00
5218;DHT22;26539;51.064;6.346;2023-06-10T14:59:55;35.80;1.00
5218;DHT22;26539;51.064;6.346;2023-06-10T15:02:22;35.70;1.00
5218;DHT22;26539;51.064;6.346;2023-06-10T15:04:47;35.60;1.00
5218;DHT22;26539;51.064;6.346;2023-06-10T15:07:13;35.40;1.00
5218;DHT22;26539;51.064;6.346;2023-06-10T15:09:41;35.30;1.00
5218;DHT22;26539;51.064;6.346;2023-06-10T15:12:06;35.30;1.00
5218;DHT22;26539;51.064;6.346;2023-06-10T15:14:32;35.30;1.00
5218;DHT22;26539;51.064;6.346;2023-06-10T15:16:58;35.30;1.00
5218;DHT22;26539;51.064;6.346;2023-06-10T15:19:25;35.30;1.00
5218;DHT22;26539;51.064;6.346;2023-06-10T15:21:51;35.20;5.20
5218;DHT22;26539;51.064;6.346;2023-06-10T15:24:16;35.20;1.00
5218;DHT22;26539;51.064;6.346;2023-06-10T15:26:42;35.30;1.00
5218;DHT22;26539;51.064;6.346;2023-06-10T15:29:08;35.40;1.00
5218;DHT22;26539;51.064;6.346;2023-06-10T15:31:33;35.40;1.00
5218;DHT22;26539;51.064;6.346;2023-06-10T15:33:59;35.30;1.00
5218;DHT22;26539;51.064;6.346;2023-06-10T15:36:25;35.20;1.00
5218;DHT22;26539;51.064;6.346;2023-06-10T15:38:52;34.90;1.00
5218;DHT22;26539;51.064;6.346;2023-06-10T15:41:18;34.40;1.00
5218;DHT22;26539;51.064;6.346;2023-06-10T15:43:44;34.00;1.00
5218;DHT22;26539;51.064;6.346;2023-06-10T15:46:09;33.60;1.00
5218;DHT22;26539;51.064;6.346;2023-06-10T15:48:35;33.50;1.00
5218;DHT22;26539;51.064;6.346;2023-06-10T15:51:00;33.50;1.00
5218;DHT22;26539;51.064;6.346;2023-06-10T15:53:26;33.50;1.00
5218;DHT22;26539;51.064;6.346;2023-06-10T15:55:51;33.50;1.00
5218;DHT22;26539;51.064;6.346;2023-06-10T15:58:17;33.50;1.00
5218;DHT22;26539;51.064;6.346;2023-06-10T16:00:42;33.50;1.00
5218;DHT22;26539;51.064;6.346;2023-06-10T16:03:08;33.50;1.00
5218;DHT22;26539;51.064;6.346;2023-06-10T16:05:33;33.50;1.00
5218;DHT22;26539;51.064;6.346;2023-06-10T16:07:59;33.50;1.00
5218;DHT22;26539;51.064;6.346;2023-06-10T16:10:25;33.40;1.00
5218;DHT22;26539;51.064;6.346;2023-06-10T16:12:51;33.40;1.00
5218;DHT22;26539;51.064;6.346;2023-06-10T16:15:16;33.40;1.00
5218;DHT22;26539;51.064;6.346;2023-06-10T16:17:42;33.40;1.00
5218;DHT22;26539;51.064;6.346;2023-06-10T16:20:09;33.40;1.00
5218;DHT22;26539;51.064;6.346;2023-06-10T16:22:35;33.40;1.00
5218;DHT22;26539;51.064;6.346;2023-06-10T16:25:00;33.40;1.00
5218;DHT22;26539;51.064;6.346;2023-06-10T16:27:26;33.50;1.00
5218;DHT22;26539;51.064;6.346;2023-06-10T16:29:55;33.50;1.00
5218;DHT22;26539;51.064;6.346;2023-06-10T16:32:20;33.50;1.00
5218;DHT22;26539;51.064;6.346;2023-06-10T16:34:46;33.40;1.00
5218;DHT22;26539;51.064;6.346;2023-06-10T16:37:12;33.40;1.00
5218;DHT22;26539;51.064;6.346;2023-06-10T16:39:37;33.30;1.00
5218;DHT22;26539;51.064;6.346;2023-06-10T16:42:03;33.30;1.00
5218;DHT22;26539;51.064;6.346;2023-06-10T16:44:30;33.30;1.00
5218;DHT22;26539;51.064;6.346;2023-06-10T16:46:55;33.40;8.40
5218;DHT22;26539;51.064;6.346;2023-06-10T16:49:21;33.30;1.00
5218;DHT22;26539;51.064;6.346;2023-06-10T16:51:46;33.30;1.00
5218;DHT22;26539;51.064;6.346;2023-06-10T16:54:12;33.30;1.00
5218;DHT22;26539;51.064;6.346;2023-06-10T16:56:37;33.20;1.00
5218;DHT22;26539;51.064;6.346;2023-06-10T16:59:03;33.10;1.00
5218;DHT22;26539;51.064;6.346;2023-06-10T17:01:28;33.00;1.00
5218;DHT22;26539;51.064;6.346;2023-06-10T17:03:54;32.80;1.00
5218;DHT22;26539;51.064;6.346;2023-06-10T17:06:19;32.70;1.00
5218;DHT22;26539;51.064;6.346;2023-06-10T17:08:45;32.60;1.00
5218;DHT22;26539;51.064;6.346;2023-06-10T17:11:11;32.60;1.00
5218;DHT22;26539;51.064;6.346;2023-06-10T17:13:36;32.50;1.00
5218;DHT22;26539;51.064;6.346;2023-06-10T17:16:02;32.50;1.00
5218;DHT22;26539;51.064;6.346;2023-06-10T17:18:28;32.50;1.00
5218;DHT22;26539;51.064;6.346;2023-06-10T17:20:53;32.40;8.80
5218;DHT22;26539;51.064;6.346;2023-06-10T17:23:19;32.40;1.00
5218;DHT22;26539;51.064;6.346;2023-06-10T17:25:45;32.50;1.00
5218;DHT22;26539;51.064;6.346;2023-06-10T17:28:11;32.50;1.00
5218;DHT22;26539;51.064;6.346;2023-06-10T17:30:36;32.40;1.00
5218;DHT22;26539;51.064;6.346;2023-06-10T17:33:02;32.40;1.80
5218;DHT22;26539;51.064;6.346;2023-06-10T17:35:27;32.30;1.30
5218;DHT22;26539;51.064;6.346;2023-06-10T17:37:53;32.30;1.60
5218;DHT22;26539;51.064;6.346;2023-06-10T17:40:18;32.20;1.60
5218;DHT22;26539;51.064;6.346;2023-06-10T17:42:44;32.10;1.20
5218;DHT22;26539;51.064;6.346;2023-06-10T17:45:10;32.00;1.30
5218;DHT22;26539;51.064;6.346;2023-06-10T17:47:35;31.80;1.20
5218;DHT22;26539;51.064;6.346;2023-06-10T17:50:01;31.80;1.50
5218;DHT22;26539;51.064;6.346;2023-06-10T17:52:26;31.60;1.00
5218;DHT22;26539;51.064;6.346;2023-06-10T17:54:52;31.50;1.00
5218;DHT22;26539;51.064;6.346;2023-06-10T17:57:17;31.40;1.00
5218;DHT22;26539;51.064;6.346;2023-06-10T17:59:43;31.30;1.30
5218;DHT22;26539;51.064;6.346;2023-06-10T18:02:09;31.20;1.00
5218;DHT22;26539;51.064;6.346;2023-06-10T18:04:34;31.10;1.10
5218;DHT22;26539;51.064;6.346;2023-06-10T18:07:00;31.10;1.60
5218;DHT22;26539;51.064;6.346;2023-06-10T18:09:26;31.00;2.00
5218;DHT22;26539;51.064;6.346;2023-06-10T18:11:52;31.00;2.20
5218;DHT22;26539;51.064;6.346;2023-06-10T18:14:18;30.90;2.10
5218;DHT22;26539;51.064;6.346;2023-06-10T18:16:43;30.80;2.70
5218;DHT22;26539;51.064;6.346;2023-06-10T18:19:09;30.70;3.60
5218;DHT22;26539;51.064;6.346;2023-06-10T18:21:35;30.70;3.70
5218;DHT22;26539;51.064;6.346;2023-06-10T18:24:01;30.60;4.50
5218;DHT22;26539;51.064;6.346;2023-06-10T18:26:27;30.50;4.50
5218;DHT22;26539;51.064;6.346;2023-06-10T18:28:53;30.40;5.30
5218;DHT22;26539;51.064;6.346;2023-06-10T18:31:18;30.30;5.10
5218;DHT22;26539;51.064;6.346;2023-06-10T18:33:47;30.30;6.00
5218;DHT22;26539;51.064;6.346;2023-06-10T18:36:13;30.20;6.30
5218;DHT22;26539;51.064;6.346;2023-06-10T18:38:38;30.10;6.80
5218;DHT22;26539;51.064;6.346;2023-06-10T18:41:04;30.00;7.70
5218;DHT22;26539;51.064;6.346;2023-06-10T18:43:30;29.90;8.40
5218;DHT22;26539;51.064;6.346;2023-06-10T18:45:56;29.80;7.60
5218;DHT22;26539;51.064;6.346;2023-06-10T18:48:21;29.70;8.10
5218;DHT22;26539;51.064;6.346;2023-06-10T18:50:47;29.60;9.00
5218;DHT22;26539;51.064;6.346;2023-06-10T18:53:12;29.50;8.60
5218;DHT22;26539;51.064;6.346;2023-06-10T18:55:38;29.50;9.60
5218;DHT22;26539;51.064;6.346;2023-06-10T18:58:04;29.40;10.10
5218;DHT22;26539;51.064;6.346;2023-06-10T19:00:30;29.30;10.50
5218;DHT22;26539;51.064;6.346;2023-06-10T19:02:56;29.20;10.50
5218;DHT22;26539;51.064;6.346;2023-06-10T19:05:22;29.20;11.70
5218;DHT22;26539;51.064;6.346;2023-06-10T19:07:48;29.10;11.00
5218;DHT22;26539;51.064;6.346;2023-06-10T19:10:14;29.00;11.50
5218;DHT22;26539;51.064;6.346;2023-06-10T19:12:39;28.80;21.10
5218;DHT22;26539;51.064;6.346;2023-06-10T19:15:05;28.70;11.60
5218;DHT22;26539;51.064;6.346;2023-06-10T19:17:31;28.60;11.90
5218;DHT22;26539;51.064;6.346;2023-06-10T19:19:57;28.50;12.70
5218;DHT22;26539;51.064;6.346;2023-06-10T19:22:22;28.40;12.40
5218;DHT22;26539;51.064;6.346;2023-06-10T19:25:01;28.30;12.40
5218;DHT22;26539;51.064;6.346;2023-06-10T19:27:28;28.20;13.50
5218;DHT22;26539;51.064;6.346;2023-06-10T19:29:57;28.10;13.80
5218;DHT22;26539;51.064;6.346;2023-06-10T19:32:23;28.00;14.30
5218;DHT22;26539;51.064;6.346;2023-06-10T19:34:49;27.90;14.80
5218;DHT22;26539;51.064;6.346;2023-06-10T19:37:15;27.80;15.50
5218;DHT22;26539;51.064;6.346;2023-06-10T19:39:40;27.60;15.40
5218;DHT22;26539;51.064;6.346;2023-06-10T19:42:06;27.60;15.80
5218;DHT22;26539;51.064;6.346;2023-06-10T19:44:31;27.50;15.90
5218;DHT22;26539;51.064;6.346;2023-06-10T19:46:57;27.40;17.00
5218;DHT22;26539;51.064;6.346;2023-06-10T19:49:22;27.30;16.50
5218;DHT22;26539;51.064;6.346;2023-06-10T19:51:49;27.30;17.00
5218;DHT22;26539;51.064;6.346;2023-06-10T19:54:16;27.20;17.30
5218;DHT22;26539;51.064;6.346;2023-06-10T19:56:41;27.10;17.60
5218;DHT22;26539;51.064;6.346;2023-06-10T19:59:07;27.00;18.40
5218;DHT22;26539;51.064;6.346;2023-06-10T20:01:33;26.90;18.90
5218;DHT22;26539;51.064;6.346;2023-06-10T20:03:58;26.90;19.40
5218;DHT22;26539;51.064;6.346;2023-06-10T20:06:24;26.70;20.30
5218;DHT22;26539;51.064;6.346;2023-06-10T20:08:49;26.60;20.00
5218;DHT22;26539;51.064;6.346;2023-06-10T20:11:15;26.50;19.80
5218;DHT22;26539;51.064;6.346;2023-06-10T20:13:41;26.40;20.40
5218;DHT22;26539;51.064;6.346;2023-06-10T20:16:06;26.30;21.70
5218;DHT22;26539;51.064;6.346;2023-06-10T20:18:32;26.20;21.70
5218;DHT22;26539;51.064;6.346;2023-06-10T20:20:57;26.10;22.60
5218;DHT22;26539;51.064;6.346;2023-06-10T20:23:23;26.10;22.60
5218;DHT22;26539;51.064;6.346;2023-06-10T20:25:48;26.00;23.20
5218;DHT22;26539;51.064;6.346;2023-06-10T20:28:14;26.00;24.10
5218;DHT22;26539;51.064;6.346;2023-06-10T20:30:40;26.00;24.40
5218;DHT22;26539;51.064;6.346;2023-06-10T20:33:06;25.90;24.60
5218;DHT22;26539;51.064;6.346;2023-06-10T20:35:31;25.80;25.60
5218;DHT22;26539;51.064;6.346;2023-06-10T20:37:57;25.80;25.80
5218;DHT22;26539;51.064;6.346;2023-06-10T20:40:22;25.80;25.80
5218;DHT22;26539;51.064;6.346;2023-06-10T20:42:48;25.60;26.80
5218;DHT22;26539;51.064;6.346;2023-06-10T20:45:13;25.60;26.90
5218;DHT22;26539;51.064;6.346;2023-06-10T20:47:39;25.50;27.00
5218;DHT22;26539;51.064;6.346;2023-06-10T20:50:05;25.40;28.40
5218;DHT22;26539;51.064;6.346;2023-06-10T20:52:31;25.30;28.00
5218;DHT22;26539;51.064;6.346;2023-06-10T20:54:56;25.20;28.60
5218;DHT22;26539;51.064;6.346;2023-06-10T20:57:22;25.10;29.40
5218;DHT22;26539;51.064;6.346;2023-06-10T20:59:49;25.10;30.20
5218;DHT22;26539;51.064;6.346;2023-06-10T21:02:15;25.00;30.30
5218;DHT22;26539;51.064;6.346;2023-06-10T21:04:40;25.00;31.20
5218;DHT22;26539;51.064;6.346;2023-06-10T21:07:06;24.90;31.30
5218;DHT22;26539;51.064;6.346;2023-06-10T21:09:31;24.90;32.60
5218;DHT22;26539;51.064;6.346;2023-06-10T21:11:57;24.80;34.10
5218;DHT22;26539;51.064;6.346;2023-06-10T21:14:22;24.80;34.10
5218;DHT22;26539;51.064;6.346;2023-06-10T21:16:48;24.80;35.20
5218;DHT22;26539;51.064;6.346;2023-06-10T21:19:13;24.80;36.20
5218;DHT22;26539;51.064;6.346;2023-06-10T21:21:39;24.80;36.60
5218;DHT22;26539;51.064;6.346;2023-06-10T21:24:05;24.80;37.60
5218;DHT22;26539;51.064;6.346;2023-06-10T21:26:31;24.80;37.30
5218;DHT22;26539;51.064;6.346;2023-06-10T21:28:57;24.80;38.40
5218;DHT22;26539;51.064;6.346;2023-06-10T21:31:23;24.80;39.00
5218;DHT22;26539;51.064;6.346;2023-06-10T21:33:50;24.70;39.80
5218;DHT22;26539;51.064;6.346;2023-06-10T21:36:16;24.70;40.70
5218;DHT22;26539;51.064;6.346;2023-06-10T21:38:42;24.70;41.80
5218;DHT22;26539;51.064;6.346;2023-06-10T21:41:07;24.70;42.10
5218;DHT22;26539;51.064;6.346;2023-06-10T21:43:33;24.70;42.90
5218;DHT22;26539;51.064;6.346;2023-06-10T21:45:58;24.70;43.30
5218;DHT22;26539;51.064;6.346;2023-06-10T21:48:24;24.70;44.50
5218;DHT22;26539;51.064;6.346;2023-06-10T21:50:49;24.70;43.90
5218;DHT22;26539;51.064;6.346;2023-06-10T21:53:15;24.60;45.30
5218;DHT22;26539;51.064;6.346;2023-06-10T21:55:40;24.60;46.00
5218;DHT22;26539;51.064;6.346;2023-06-10T21:58:06;24.50;46.40
5218;DHT22;26539;51.064;6.346;2023-06-10T22:00:31;24.50;48.20
5218;DHT22;26539;51.064;6.346;2023-06-10T22:02:57;24.50;47.80
5218;DHT22;26539;51.064;6.346;2023-06-10T22:05:22;24.40;48.80
5218;DHT22;26539;51.064;6.346;2023-06-10T22:07:49;24.30;49.10
5218;DHT22;26539;51.064;6.346;2023-06-10T22:10:15;24.30;50.40
5218;DHT22;26539;51.064;6.346;2023-06-10T22:12:40;24.30;52.50
5218;DHT22;26539;51.064;6.346;2023-06-10T22:15:06;24.20;52.60
5218;DHT22;26539;51.064;6.346;2023-06-10T22:17:32;24.20;53.70
5218;DHT22;26539;51.064;6.346;2023-06-10T22:19:57;24.20;55.10
5218;DHT22;26539;51.064;6.346;2023-06-10T22:22:23;24.10;56.00
5218;DHT22;26539;51.064;6.346;2023-06-10T22:24:54;24.10;56.50
5218;DHT22;26539;51.064;6.346;2023-06-10T22:27:20;24.10;57.20
5218;DHT22;26539;51.064;6.346;2023-06-10T22:29:46;24.10;57.40
5218;DHT22;26539;51.064;6.346;2023-06-10T22:32:11;24.00;57.80
5218;DHT22;26539;51.064;6.346;2023-06-10T22:34:37;24.00;58.90
5218;DHT22;26539;51.064;6.346;2023-06-10T22:37:03;24.00;59.30
5218;DHT22;26539;51.064;6.346;2023-06-10T22:39:28;23.90;60.10
5218;DHT22;26539;51.064;6.346;2023-06-10T22:41:54;23.90;61.90
5218;DHT22;26539;51.064;6.346;2023-06-10T22:44:19;23.90;62.40
5218;DHT22;26539;51.064;6.346;2023-06-10T22:46:45;23.80;64.40
5218;DHT22;26539;51.064;6.346;2023-06-10T22:49:11;23.70;66.50
5218;DHT22;26539;51.064;6.346;2023-06-10T22:51:37;23.70;67.30
5218;DHT22;26539;51.064;6.346;2023-06-10T22:54:03;23.70;67.90
5218;DHT22;26539;51.064;6.346;2023-06-10T22:56:29;23.60;69.40
5218;DHT22;26539;51.064;6.346;2023-06-10T22:58:57;23.60;71.90
5218;DHT22;26539;51.064;6.346;2023-06-10T23:01:30;23.50;73.40
5218;DHT22;26539;51.064;6.346;2023-06-10T23:03:57;23.50;74.20
5218;DHT22;26539;51.064;6.346;2023-06-10T23:06:23;23.40;77.40
5218;DHT22;26539;51.064;6.346;2023-06-10T23:08:48;23.40;77.30
5218;DHT22;26539;51.064;6.346;2023-06-10T23:11:14;23.30;78.30
5218;DHT22;26539;51.064;6.346;2023-06-10T23:13:39;23.30;80.40
5218;DHT22;26539;51.064;6.346;2023-06-10T23:16:06;23.20;81.00
5218;DHT22;26539;51.064;6.346;2023-06-10T23:18:32;23.20;82.00
5218;DHT22;26539;51.064;6.346;2023-06-10T23:20:58;23.20;83.00
5218;DHT22;26539;51.064;6.346;2023-06-10T23:23:24;23.10;83.90